Time;durP1;ratioP1;P1;durP2;ratioP2;P2;SDS_P1;SDS_P2;PMS_P1;PMS_P2;Temp;Humidity;BMP_temperature;BMP_pressure;BME280_temperature;BME280_humidity;BME280_pressure;Samples;Min_cycle;Max_cycle;Signal;HPM_P1;HPM_P2
2022/11/17 00:00:00;;;;;;;7.78;5.35;;;6.90;92.20;;;;;;4961384;28;20150;-73
2022/11/17 00:02:26;;;;;;;8.48;5.07;;;7.00;91.60;;;;;;4960956;28;20065;-74
2022/11/17 00:04:51;;;;;;;9.25;5.45;;;7.00;92.00;;;;;;4960635;28;20434;-75
2022/11/17 00:07:17;;;;;;;7.65;5.40;;;7.00;91.80;;;;;;4962109;28;20034;-73
2022/11/17 00:09:43;;;;;;;8.60;5.38;;;7.00;91.40;;;;;;4961085;28;20038;-73
2022/11/17 00:14:53;;;;;;;11.30;6.20;;;7.00;91.10;;;;;;4961752;28;20038;-72
2022/11/17 00:17:19;;;;;;;8.77;6.15;;;6.90;91.40;;;;;;4960167;28;20423;-74
2022/11/17 00:22:31;;;;;;;11.05;7.15;;;6.80;91.40;;;;;;4960330;28;20035;-74
2022/11/17 00:24:58;;;;;;;9.63;6.28;;;6.80;91.70;;;;;;4941140;28;20034;-73
2022/11/17 00:27:24;;;;;;;10.40;6.85;;;6.70;92.20;;;;;;4959836;28;20395;-74
2022/11/17 00:29:49;;;;;;;9.00;6.45;;;6.70;91.80;;;;;;4958049;28;20030;-73
2022/11/17 00:35:03;;;;;;;8.80;6.57;;;6.50;91.90;;;;;;4965286;28;20035;-73
2022/11/17 00:37:32;;;;;;;10.18;7.07;;;6.60;92.10;;;;;;4962540;28;20060;-73
2022/11/17 00:39:58;;;;;;;9.25;6.78;;;6.70;92.00;;;;;;4963072;28;20112;-73
2022/11/17 00:42:23;;;;;;;10.90;7.22;;;6.70;92.10;;;;;;4964490;28;20034;-73
2022/11/17 00:44:49;;;;;;;9.98;7.18;;;6.70;91.70;;;;;;4964130;28;20090;-73
2022/11/17 00:47:15;;;;;;;12.23;7.93;;;6.80;91.60;;;;;;4965380;28;20035;-73
2022/11/17 00:49:41;;;;;;;11.25;7.18;;;6.80;91.80;;;;;;4965296;28;20046;-73
2022/11/17 00:52:08;;;;;;;10.45;6.93;;;6.70;91.60;;;;;;4965735;28;20042;-73
2022/11/17 00:54:34;;;;;;;11.55;6.57;;;6.70;91.50;;;;;;4965399;28;20037;-74
2022/11/17 00:57:00;;;;;;;8.00;6.55;;;6.60;91.50;;;;;;4948634;28;20070;-73
2022/11/17 00:59:26;;;;;;;12.65;7.40;;;6.50;91.60;;;;;;4963072;28;20666;-72
2022/11/17 01:01:51;;;;;;;9.52;6.78;;;6.50;91.50;;;;;;4963448;28;20038;-73
2022/11/17 01:04:17;;;;;;;9.77;7.22;;;6.40;92.10;;;;;;4963249;28;20043;-73
2022/11/17 01:06:48;;;;;;;9.35;6.97;;;6.40;92.00;;;;;;4963372;28;20031;-73
2022/11/17 01:09:19;;;;;;;10.43;6.97;;;6.30;92.00;;;;;;4964233;28;20065;-73
2022/11/17 01:11:46;;;;;;;10.07;7.18;;;6.30;92.20;;;;;;4962574;28;20549;-72
2022/11/17 01:14:15;;;;;;;13.32;7.88;;;6.30;92.20;;;;;;4962700;28;20026;-73
2022/11/17 01:16:41;;;;;;;11.73;6.97;;;6.40;92.00;;;;;;4964205;28;20049;-72
2022/11/17 01:19:08;;;;;;;11.13;7.63;;;6.50;92.00;;;;;;4963215;28;20384;-73
2022/11/17 01:21:34;;;;;;;11.48;7.82;;;6.50;91.70;;;;;;4963109;28;20943;-73
2022/11/17 01:24:01;;;;;;;14.82;7.43;;;6.40;91.70;;;;;;4963012;28;20122;-73
2022/11/17 01:26:37;;;;;;;9.57;6.88;;;6.30;91.90;;;;;;4962940;28;20134;-73
2022/11/17 01:29:04;;;;;;;11.32;7.75;;;6.30;92.20;;;;;;4965601;28;20053;-73
2022/11/17 01:31:36;;;;;;;10.63;7.70;;;6.40;91.80;;;;;;4964456;28;20065;-72
2022/11/17 01:34:02;;;;;;;10.93;7.40;;;6.20;91.80;;;;;;4964138;28;20044;-73
2022/11/17 01:39:19;;;;;;;10.90;7.63;;;6.30;92.10;;;;;;4961007;28;20035;-72
2022/11/17 01:41:45;;;;;;;11.13;7.75;;;6.30;92.20;;;;;;4962440;28;20043;-73
2022/11/17 01:44:48;;;;;;;11.90;7.07;;;6.20;92.00;;;;;;4965217;28;20026;-73
2022/11/17 01:47:21;;;;;;;11.20;7.20;;;6.10;92.20;;;;;;4961600;28;20039;-72
2022/11/17 01:49:50;;;;;;;8.45;6.35;;;6.10;92.20;;;;;;4944375;28;20742;-73
2022/11/17 01:52:17;;;;;;;10.20;7.45;;;6.00;92.30;;;;;;4964821;28;20031;-72
2022/11/17 01:54:44;;;;;;;12.05;7.10;;;6.00;92.40;;;;;;4962989;28;20564;-73
2022/11/17 01:57:15;;;;;;;11.30;6.93;;;6.00;92.20;;;;;;4963125;28;20038;-73
2022/11/17 02:00:04;;;;;;;10.13;7.03;;;5.90;92.40;;;;;;4959421;28;20038;-73
2022/11/17 02:02:31;;;;;;;12.55;8.07;;;6.00;92.20;;;;;;4962234;28;20395;-72
2022/11/17 02:05:06;;;;;;;12.50;7.10;;;6.00;92.10;;;;;;4964821;28;20062;-72
2022/11/17 02:07:36;;;;;;;10.98;7.10;;;6.00;92.20;;;;;;4962352;28;20027;-73
2022/11/17 02:10:03;;;;;;;10.07;7.50;;;6.10;92.10;;;;;;4944551;28;20065;-73
2022/11/17 02:12:31;;;;;;;10.05;6.97;;;6.10;92.00;;;;;;4965917;28;20398;-72
2022/11/17 02:14:57;;;;;;;9.73;7.43;;;6.20;92.10;;;;;;4962802;28;20039;-73
2022/11/17 02:17:29;;;;;;;10.65;7.05;;;6.10;91.70;;;;;;4962684;28;20125;-73
2022/11/17 02:20:13;;;;;;;11.70;7.05;;;6.00;91.90;;;;;;4962170;28;20070;-72
2022/11/17 02:22:58;;;;;;;10.85;7.38;;;5.80;92.20;;;;;;4962524;28;20133;-72
2022/11/17 02:25:48;;;;;;;12.07;7.43;;;5.80;92.40;;;;;;4962095;28;20129;-73
2022/11/17 02:28:25;;;;;;;11.63;7.13;;;5.70;92.70;;;;;;4961742;28;20035;-73
2022/11/17 02:31:31;;;;;;;12.35;7.45;;;5.70;92.80;;;;;;4958892;28;20150;-73
2022/11/17 02:34:27;;;;;;;10.02;7.32;;;5.80;92.70;;;;;;4951472;28;20309;-73
2022/11/17 02:37:09;;;;;;;12.60;8.20;;;5.90;92.60;;;;;;4962657;28;20042;-73
2022/11/17 02:39:46;;;;;;;12.10;7.15;;;5.90;92.30;;;;;;4962135;28;20050;-73
2022/11/17 02:44:02;;;;;;;11.45;7.25;;;5.90;92.30;;;;;;4962917;28;20820;-72
2022/11/17 02:45:19;;;;;;;11.88;7.40;;;5.90;92.30;;;;;;4961921;28;20531;-72
2022/11/17 02:47:49;;;;;;;10.73;7.45;;;6.00;91.90;;;;;;4961887;28;20030;-73
2022/11/17 02:50:16;;;;;;;10.88;7.03;;;6.00;91.80;;;;;;4961531;28;20046;-73
2022/11/17 02:52:42;;;;;;;10.93;6.85;;;5.90;92.10;;;;;;4961349;28;20038;-73
2022/11/17 02:55:09;;;;;;;11.73;7.43;;;5.90;91.80;;;;;;4963181;28;20561;-73
2022/11/17 02:57:38;;;;;;;10.30;7.20;;;6.00;91.80;;;;;;4962048;28;20097;-73
2022/11/17 03:00:09;;;;;;;9.15;6.53;;;5.80;91.90;;;;;;4961845;28;20982;-73
2022/11/17 03:02:54;;;;;;;10.73;7.57;;;5.80;92.00;;;;;;4962365;28;20043;-73
2022/11/17 03:05:25;;;;;;;11.50;7.15;;;5.80;92.00;;;;;;4963494;28;20097;-73
2022/11/17 03:08:00;;;;;;;10.63;7.30;;;5.90;91.90;;;;;;4960902;28;20167;-73
2022/11/17 03:10:51;;;;;;;10.63;7.32;;;5.90;91.80;;;;;;4961733;28;20069;-72
2022/11/17 03:13:27;;;;;;;11.90;7.47;;;6.00;91.60;;;;;;4959396;28;20037;-72
2022/11/17 03:15:58;;;;;;;11.67;7.70;;;6.00;91.70;;;;;;4961336;28;20125;-73
2022/11/17 03:18:36;;;;;;;11.05;7.03;;;6.00;91.60;;;;;;4962185;28;20502;-73
2022/11/17 03:21:18;;;;;;;9.60;7.10;;;5.90;91.80;;;;;;4960950;28;20038;-73
2022/11/17 03:23:59;;;;;;;10.10;6.93;;;5.90;91.60;;;;;;4964649;28;20041;-73
2022/11/17 03:26:33;;;;;;;9.63;6.57;;;5.90;91.50;;;;;;4960539;28;20059;-77
2022/11/17 03:29:02;;;;;;;10.20;6.75;;;5.80;91.40;;;;;;4961558;28;20105;-73
2022/11/17 03:31:30;;;;;;;9.95;7.20;;;5.70;91.60;;;;;;4959102;28;20391;-73
2022/11/17 03:33:56;;;;;;;10.65;7.13;;;5.70;92.00;;;;;;4959909;28;20053;-73
2022/11/17 03:36:29;;;;;;;9.30;6.00;;;5.60;91.90;;;;;;4961356;28;20447;-73
2022/11/17 03:39:02;;;;;;;10.10;6.43;;;5.70;92.20;;;;;;4961493;28;20118;-73
2022/11/17 03:41:33;;;;;;;10.45;7.28;;;5.90;91.80;;;;;;4961902;28;20069;-73
2022/11/17 03:44:01;;;;;;;11.65;6.88;;;5.90;91.40;;;;;;4964396;28;20031;-73
2022/11/17 03:46:29;;;;;;;11.85;7.28;;;5.90;91.50;;;;;;4962822;28;20726;-73
2022/11/17 03:49:22;;;;;;;9.88;7.20;;;5.90;91.60;;;;;;4961091;28;20451;-73
2022/11/17 03:51:48;;;;;;;10.25;6.70;;;5.90;91.40;;;;;;4926343;28;20054;-74
2022/11/17 03:54:14;;;;;;;11.23;6.90;;;5.80;91.40;;;;;;4961227;28;20038;-73
2022/11/17 03:56:50;;;;;;;9.45;6.65;;;5.90;91.40;;;;;;4963269;28;20038;-73
2022/11/17 03:59:49;;;;;;;14.57;7.35;;;5.90;91.40;;;;;;4961639;28;20058;-73
2022/11/17 04:02:20;;;;;;;7.57;6.13;;;5.80;91.20;;;;;;4960232;28;20047;-73
2022/11/17 04:05:04;;;;;;;9.63;6.60;;;5.80;91.60;;;;;;4960945;28;20027;-72
2022/11/17 04:07:41;;;;;;;10.88;6.65;;;5.80;91.60;;;;;;4961012;28;20673;-73
2022/11/17 04:10:09;;;;;;;11.13;6.22;;;5.80;91.90;;;;;;4963475;28;20120;-74
2022/11/17 04:18:04;;;;;;;9.70;6.78;;;5.80;91.80;;;;;;4966396;28;20085;-73
2022/11/17 04:20:34;;;;;;;11.90;7.30;;;5.80;91.90;;;;;;4965934;28;20029;-73
2022/11/17 04:23:12;;;;;;;11.25;7.28;;;5.90;91.90;;;;;;4965532;28;20031;-73
2022/11/17 04:28:37;;;;;;;9.48;6.78;;;5.80;91.90;;;;;;4965566;28;20035;-73
2022/11/17 04:31:09;;;;;;;12.50;7.03;;;5.70;91.90;;;;;;4964205;28;20054;-73
2022/11/17 04:33:37;;;;;;;11.85;7.45;;;5.80;92.20;;;;;;4965152;28;20038;-73
2022/11/17 04:36:03;;;;;;;9.07;6.70;;;5.80;91.80;;;;;;4967666;28;20038;-72
2022/11/17 04:38:29;;;;;;;11.80;7.38;;;5.70;91.90;;;;;;4964436;28;20796;-73
2022/11/17 04:43:48;;;;;;;13.18;7.57;;;5.90;91.90;;;;;;4960555;28;20058;-73
2022/11/17 04:46:15;;;;;;;11.07;7.13;;;6.00;91.70;;;;;;4946136;28;20030;-73
2022/11/17 04:48:41;;;;;;;10.57;6.57;;;5.90;91.50;;;;;;4963881;28;20026;-73
2022/11/17 04:51:07;;;;;;;11.85;7.97;;;6.00;91.50;;;;;;4964041;28;20050;-73
2022/11/17 04:53:33;;;;;;;14.55;8.18;;;6.00;91.80;;;;;;4966274;28;20030;-73
2022/11/17 04:56:03;;;;;;;10.68;7.25;;;6.00;91.70;;;;;;4966265;28;20041;-73
2022/11/17 04:58:28;;;;;;;11.13;7.68;;;5.80;91.90;;;;;;4965812;28;20046;-73
2022/11/17 05:00:55;;;;;;;12.30;7.25;;;5.80;92.20;;;;;;4967011;28;20439;-73
2022/11/17 05:03:21;;;;;;;13.57;7.80;;;5.90;92.00;;;;;;4964859;28;20372;-73
2022/11/17 05:05:47;;;;;;;10.82;7.45;;;5.80;91.80;;;;;;4964378;28;20130;-73
2022/11/17 05:08:14;;;;;;;12.32;8.35;;;5.70;92.10;;;;;;4963776;28;20390;-73
2022/11/17 05:13:25;;;;;;;13.00;7.75;;;6.00;92.10;;;;;;4963320;28;20581;-74
2022/11/17 05:18:42;;;;;;;11.25;7.05;;;5.90;91.90;;;;;;4962176;28;20154;-73
2022/11/17 05:21:10;;;;;;;13.43;7.80;;;5.90;92.10;;;;;;4960788;28;20042;-73
2022/11/17 05:23:55;;;;;;;13.48;7.95;;;6.00;92.10;;;;;;4963238;28;20045;-73
2022/11/17 05:26:32;;;;;;;13.27;7.85;;;6.00;92.10;;;;;;4959809;28;20022;-73
2022/11/17 05:28:59;;;;;;;12.95;7.78;;;6.10;91.90;;;;;;4962058;28;20038;-73
2022/11/17 05:31:26;;;;;;;13.95;7.85;;;6.10;91.80;;;;;;4959139;28;20053;-73
2022/11/17 05:33:53;;;;;;;13.30;7.85;;;6.00;91.90;;;;;;4963520;28;20085;-73
2022/11/17 05:36:20;;;;;;;14.85;7.80;;;6.10;92.10;;;;;;4960734;28;20082;-74
2022/11/17 05:38:47;;;;;;;14.38;8.55;;;6.00;92.10;;;;;;4965848;28;20470;-73
2022/11/17 05:41:16;;;;;;;13.30;7.75;;;5.90;92.40;;;;;;4960082;28;20042;-72
2022/11/17 05:43:43;;;;;;;10.27;7.82;;;5.80;92.50;;;;;;4960952;28;20031;-73
2022/11/17 05:46:09;;;;;;;12.38;7.43;;;5.80;92.70;;;;;;4962908;28;20694;-73
2022/11/17 05:48:35;;;;;;;11.10;8.05;;;5.90;92.50;;;;;;4963332;28;20093;-73
2022/11/17 05:51:01;;;;;;;12.75;7.78;;;6.00;92.20;;;;;;4961043;28;20039;-73
2022/11/17 05:53:28;;;;;;;12.43;7.82;;;6.00;92.20;;;;;;4965906;28;21942;-73
2022/11/17 05:56:29;;;;;;;12.68;7.82;;;6.00;92.30;;;;;;4963134;28;20459;-73
2022/11/17 05:59:26;;;;;;;12.40;8.02;;;6.00;92.30;;;;;;4961276;28;20042;-73
2022/11/17 06:02:17;;;;;;;14.15;8.70;;;6.00;92.50;;;;;;4960658;28;20038;-73
2022/11/17 06:04:45;;;;;;;11.40;7.80;;;6.00;92.50;;;;;;4967134;28;20129;-72
2022/11/17 06:07:11;;;;;;;12.38;8.23;;;5.90;92.50;;;;;;4963182;28;20077;-74
2022/11/17 06:09:40;;;;;;;11.48;7.85;;;6.00;92.50;;;;;;4966369;28;20145;-74
2022/11/17 06:12:06;;;;;;;11.70;8.15;;;6.00;92.70;;;;;;4958287;28;20031;-73
2022/11/17 06:14:33;;;;;;;16.40;8.93;;;5.90;92.50;;;;;;4965218;28;20211;-73
2022/11/17 06:17:03;;;;;;;14.57;9.30;;;5.90;92.60;;;;;;4964389;28;20022;-73
2022/11/17 06:19:41;;;;;;;15.20;9.18;;;5.90;92.60;;;;;;4961945;28;20070;-73
2022/11/17 06:22:07;;;;;;;13.40;8.38;;;5.90;92.70;;;;;;4962429;28;20118;-74
2022/11/17 06:24:33;;;;;;;13.02;8.38;;;5.90;92.70;;;;;;4960770;28;20042;-73
2022/11/17 06:27:00;;;;;;;15.23;8.75;;;5.80;92.70;;;;;;4943867;28;20053;-74
2022/11/17 06:29:28;;;;;;;11.30;7.75;;;5.90;92.50;;;;;;4962613;28;20031;-73
2022/11/17 06:31:56;;;;;;;11.32;8.02;;;5.90;92.70;;;;;;4957993;28;20044;-73
2022/11/17 06:34:24;;;;;;;12.55;8.75;;;6.00;92.50;;;;;;4960896;28;20034;-73
2022/11/17 06:36:52;;;;;;;12.63;8.55;;;6.00;92.60;;;;;;4944939;28;20043;-73
2022/11/17 06:39:18;;;;;;;13.00;8.82;;;6.00;92.50;;;;;;4962559;28;20627;-73
2022/11/17 06:41:44;;;;;;;11.77;8.00;;;6.00;92.40;;;;;;4962344;28;20036;-73
2022/11/17 06:44:09;;;;;;;12.38;8.00;;;5.90;92.40;;;;;;4963430;28;20034;-74
2022/11/17 06:46:38;;;;;;;13.27;7.00;;;6.00;92.60;;;;;;4962937;28;20484;-73
2022/11/17 06:49:05;;;;;;;11.63;7.38;;;6.00;92.40;;;;;;4964463;28;20026;-74
2022/11/17 06:51:31;;;;;;;11.05;7.72;;;6.10;92.20;;;;;;4964681;28;20042;-73
2022/11/17 06:53:57;;;;;;;12.35;7.97;;;6.10;92.20;;;;;;4961784;28;20035;-73
2022/11/17 06:56:23;;;;;;;11.95;7.78;;;6.10;92.20;;;;;;4946572;28;20135;-73
2022/11/17 06:58:49;;;;;;;9.65;7.68;;;6.10;92.00;;;;;;4961219;28;20132;-74
2022/11/17 07:01:15;;;;;;;10.80;7.85;;;6.10;92.10;;;;;;4962846;28;20150;-74
2022/11/17 07:03:44;;;;;;;10.45;6.60;;;6.00;91.90;;;;;;4970244;28;20077;-74
2022/11/17 07:06:10;;;;;;;10.20;6.97;;;6.10;92.30;;;;;;4948956;28;20651;-76
2022/11/17 07:08:37;;;;;;;11.68;8.25;;;6.10;92.30;;;;;;4964786;28;20430;-77
2022/11/17 07:11:12;;;;;;;11.35;7.68;;;6.20;92.10;;;;;;4961010;28;20045;-75
2022/11/17 07:13:38;;;;;;;10.85;7.47;;;6.20;91.90;;;;;;4948056;28;20573;-76
2022/11/17 07:16:12;;;;;;;9.93;7.18;;;6.10;91.80;;;;;;4961604;28;20049;-77
2022/11/17 07:18:42;;;;;;;10.60;6.60;;;6.00;92.30;;;;;;4957725;28;20049;-75
2022/11/17 07:21:10;;;;;;;9.13;6.70;;;6.00;92.20;;;;;;4963896;28;20037;-73
2022/11/17 07:23:37;;;;;;;9.57;6.88;;;6.10;92.20;;;;;;4958226;28;20046;-75
2022/11/17 07:26:04;;;;;;;10.68;7.20;;;6.00;92.20;;;;;;4957722;28;20045;-75
2022/11/17 07:28:32;;;;;;;8.57;6.60;;;6.10;92.00;;;;;;4960404;28;20034;-72
2022/11/17 07:31:02;;;;;;;9.60;6.40;;;6.10;92.20;;;;;;4958806;28;20410;-74
2022/11/17 07:33:28;;;;;;;9.57;6.47;;;6.10;92.10;;;;;;4960793;28;20790;-75
2022/11/17 07:35:54;;;;;;;9.85;6.57;;;6.20;91.80;;;;;;4959561;28;20027;-79
2022/11/17 07:38:21;;;;;;;11.43;6.80;;;6.30;91.60;;;;;;4960983;28;20582;-76
2022/11/17 07:40:47;;;;;;;11.65;6.75;;;6.30;91.50;;;;;;4960387;28;20039;-72
2022/11/17 07:43:12;;;;;;;9.15;6.38;;;6.40;91.40;;;;;;4963419;28;20693;-77
2022/11/17 07:45:38;;;;;;;10.32;6.03;;;6.40;91.50;;;;;;4963809;28;20048;-77
2022/11/17 07:48:05;;;;;;;9.73;6.75;;;6.20;91.40;;;;;;4959807;28;20026;-76
2022/11/17 07:50:32;;;;;;;9.32;6.78;;;6.20;91.70;;;;;;4959537;28;20098;-73
2022/11/17 07:52:58;;;;;;;7.82;5.90;;;6.20;91.60;;;;;;4962097;28;20058;-73
2022/11/17 07:55:24;;;;;;;8.27;5.93;;;6.10;91.80;;;;;;4961869;28;20166;-74
2022/11/17 07:57:57;;;;;;;9.52;6.75;;;6.10;91.90;;;;;;4960684;28;20118;-76
2022/11/17 08:00:24;;;;;;;10.30;6.65;;;6.20;92.10;;;;;;4961122;28;20809;-76
2022/11/17 08:02:50;;;;;;;8.90;5.93;;;6.30;91.70;;;;;;4966843;28;20043;-76
2022/11/17 08:05:17;;;;;;;11.30;7.10;;;6.40;91.60;;;;;;4961875;28;20081;-75
2022/11/17 08:07:44;;;;;;;9.35;6.80;;;6.50;91.40;;;;;;4943232;28;20041;-71
2022/11/17 08:10:11;;;;;;;10.98;6.35;;;6.50;91.20;;;;;;4960759;28;20081;-85
2022/11/17 08:12:37;;;;;;;8.40;5.97;;;6.50;91.00;;;;;;4962787;28;20142;-86
2022/11/17 08:15:03;;;;;;;11.50;6.65;;;6.50;91.30;;;;;;4961991;28;20510;-84
2022/11/17 08:17:30;;;;;;;11.20;5.93;;;6.30;91.20;;;;;;4968303;28;20065;-80
2022/11/17 08:19:56;;;;;;;9.40;6.75;;;6.30;91.50;;;;;;4948304;28;20078;-82
2022/11/17 08:22:22;;;;;;;8.63;6.75;;;6.40;91.60;;;;;;4963345;28;20133;-80
2022/11/17 08:24:48;;;;;;;8.95;6.38;;;6.40;91.60;;;;;;4956231;28;20043;-79
2022/11/17 08:27:14;;;;;;;11.20;7.25;;;6.50;91.30;;;;;;4941900;28;20031;-80
2022/11/17 08:29:40;;;;;;;10.38;6.68;;;6.50;91.50;;;;;;4969793;28;20034;-76
2022/11/17 08:32:06;;;;;;;9.50;6.03;;;6.50;91.30;;;;;;4960052;28;20306;-75
2022/11/17 08:34:31;;;;;;;8.77;6.72;;;6.60;91.10;;;;;;4960955;28;20475;-79
2022/11/17 08:36:57;;;;;;;9.48;6.57;;;6.60;91.20;;;;;;4964320;28;20039;-80
2022/11/17 08:39:23;;;;;;;10.23;6.25;;;6.50;91.50;;;;;;4962363;28;20402;-81
2022/11/17 08:41:50;;;;;;;9.75;6.38;;;6.40;91.30;;;;;;4956200;28;20061;-80
2022/11/17 08:44:16;;;;;;;10.13;6.28;;;6.40;91.60;;;;;;4960885;28;20031;-80
2022/11/17 08:46:42;;;;;;;10.88;7.15;;;6.40;91.80;;;;;;4965288;28;20136;-79
2022/11/17 08:49:08;;;;;;;10.60;6.85;;;6.50;91.80;;;;;;4959376;28;20055;-83
2022/11/17 08:51:34;;;;;;;11.45;7.50;;;6.50;91.30;;;;;;4964972;28;20085;-82
2022/11/17 08:54:00;;;;;;;8.95;6.70;;;6.60;91.60;;;;;;4959253;28;20774;-82
2022/11/17 08:56:26;;;;;;;10.38;7.07;;;6.60;91.50;;;;;;4976527;28;20058;-80
2022/11/17 08:58:51;;;;;;;10.68;7.00;;;6.60;91.50;;;;;;4979321;28;20402;-83
2022/11/17 09:01:17;;;;;;;11.27;6.97;;;6.50;91.20;;;;;;4986659;23;20043;-82
2022/11/17 09:03:45;;;;;;;13.07;7.10;;;6.50;91.40;;;;;;4988014;28;20053;-79
2022/11/17 09:06:12;;;;;;;12.00;7.35;;;6.50;91.60;;;;;;4983072;28;20037;-82
2022/11/17 09:08:38;;;;;;;12.40;7.70;;;6.50;91.50;;;;;;4981668;28;20594;-82
2022/11/17 09:11:09;;;;;;;10.85;7.00;;;6.60;91.80;;;;;;4987859;28;20065;-78
2022/11/17 09:13:36;;;;;;;15.63;7.90;;;6.60;91.40;;;;;;5000252;28;20048;-80
2022/11/17 09:16:07;;;;;;;11.82;7.40;;;6.60;91.50;;;;;;4981375;28;20116;-82
2022/11/17 09:18:33;;;;;;;12.80;6.95;;;6.50;91.40;;;;;;4986645;28;20026;-78
2022/11/17 09:21:01;;;;;;;10.95;7.13;;;6.50;91.70;;;;;;4983663;28;20911;-78
2022/11/17 09:23:28;;;;;;;12.07;7.53;;;6.50;91.60;;;;;;4984595;28;20629;-77
2022/11/17 09:25:54;;;;;;;10.98;7.07;;;6.50;91.70;;;;;;4979133;28;20026;-81
2022/11/17 09:28:22;;;;;;;11.32;7.07;;;6.50;91.50;;;;;;4982907;28;20948;-80
2022/11/17 09:30:48;;;;;;;12.25;7.18;;;6.50;91.70;;;;;;4983368;28;20037;-80
2022/11/17 09:33:13;;;;;;;11.98;7.47;;;6.50;91.50;;;;;;4983360;28;20210;-81
2022/11/17 09:35:39;;;;;;;13.48;7.57;;;6.60;91.40;;;;;;4992149;28;20038;-80
2022/11/17 09:38:05;;;;;;;10.98;7.15;;;6.60;91.40;;;;;;4983870;28;20038;-80
2022/11/17 09:40:32;;;;;;;14.20;8.27;;;6.60;91.50;;;;;;4994389;28;20030;-81
2022/11/17 09:42:58;;;;;;;13.77;7.65;;;6.50;91.50;;;;;;4986420;28;20026;-79
2022/11/17 09:45:29;;;;;;;11.23;7.38;;;6.50;91.50;;;;;;4984751;28;20453;-80
2022/11/17 09:48:01;;;;;;;12.10;7.60;;;6.50;91.50;;;;;;4979300;28;20031;-70
2022/11/17 09:50:42;;;;;;;13.98;7.57;;;6.50;91.60;;;;;;4982465;28;20038;-82
2022/11/17 09:53:22;;;;;;;11.60;7.60;;;6.60;91.50;;;;;;4991452;28;20045;-82
2022/11/17 09:55:52;;;;;;;13.43;7.65;;;6.50;91.60;;;;;;5005335;28;20045;-78
2022/11/17 09:58:38;;;;;;;12.52;7.40;;;6.50;91.80;;;;;;5004274;28;20038;-75
2022/11/17 10:01:04;;;;;;;11.43;7.07;;;6.40;91.80;;;;;;5000415;28;20029;-77
2022/11/17 10:03:34;;;;;;;12.82;7.78;;;6.40;91.80;;;;;;5008704;28;20037;-77
2022/11/17 10:06:05;;;;;;;14.50;7.78;;;6.50;92.00;;;;;;5001744;28;20037;-75
2022/11/17 10:08:37;;;;;;;13.68;8.23;;;6.40;91.80;;;;;;5002492;28;20030;-79
2022/11/17 10:11:30;;;;;;;13.32;8.13;;;6.50;92.00;;;;;;5004690;28;20036;-79
2022/11/17 10:13:49;;;;;;;11.77;7.43;;;6.50;91.90;;;;;;5000273;28;20167;-77
2022/11/17 10:16:18;;;;;;;14.27;7.93;;;6.60;91.70;;;;;;5006470;28;20033;-80
2022/11/17 10:18:44;;;;;;;11.13;7.38;;;6.60;91.70;;;;;;5006359;28;20484;-79
2022/11/17 10:21:10;;;;;;;13.25;7.88;;;6.50;91.70;;;;;;5009731;28;20042;-78
2022/11/17 10:23:38;;;;;;;14.50;7.40;;;6.40;92.00;;;;;;4998530;28;20496;-75
2022/11/17 10:26:09;;;;;;;12.95;7.57;;;6.40;92.10;;;;;;4992123;28;20038;-78
2022/11/17 10:28:35;;;;;;;14.15;8.45;;;6.40;92.30;;;;;;5000833;28;20140;-78
2022/11/17 10:31:03;;;;;;;13.48;7.30;;;6.40;92.10;;;;;;4992002;28;20080;-76
2022/11/17 10:33:44;;;;;;;11.40;7.38;;;6.50;92.20;;;;;;4997729;28;20865;-77
2022/11/17 10:36:21;;;;;;;14.20;8.20;;;6.50;91.90;;;;;;5008970;28;20397;-78
2022/11/17 10:38:50;;;;;;;14.27;7.95;;;6.60;92.20;;;;;;5002830;28;20121;-80
2022/11/17 10:41:41;;;;;;;12.48;7.40;;;6.70;91.80;;;;;;4997550;28;20083;-80
2022/11/17 10:44:29;;;;;;;13.75;8.68;;;6.80;91.70;;;;;;4999926;28;20482;-79
2022/11/17 10:46:59;;;;;;;12.48;7.68;;;6.70;91.90;;;;;;4996430;28;20405;-77
2022/11/17 10:49:28;;;;;;;16.63;8.48;;;6.80;91.80;;;;;;4999991;28;20037;-78
2022/11/17 10:52:12;;;;;;;13.20;7.95;;;6.90;91.50;;;;;;5006723;28;20025;-77
2022/11/17 10:54:38;;;;;;;13.65;7.95;;;6.90;91.20;;;;;;4998451;28;20038;-77
2022/11/17 10:57:20;;;;;;;13.70;8.02;;;6.90;91.30;;;;;;4998380;28;20545;-77
2022/11/17 10:59:51;;;;;;;16.27;9.65;;;6.80;91.60;;;;;;4994205;28;20045;-77
2022/11/17 11:02:37;;;;;;;16.95;8.77;;;6.80;91.50;;;;;;5016641;28;20041;-78
2022/11/17 11:05:09;;;;;;;16.77;9.20;;;6.80;91.60;;;;;;5006237;28;20083;-83
2022/11/17 11:07:36;;;;;;;17.42;9.55;;;6.80;91.50;;;;;;5004148;28;20037;-81
2022/11/17 11:10:17;;;;;;;15.57;9.02;;;6.60;91.60;;;;;;5005990;28;20036;-81
2022/11/17 11:13:10;;;;;;;16.60;9.55;;;6.70;91.70;;;;;;5005453;28;20040;-80
2022/11/17 11:15:36;;;;;;;15.50;9.05;;;6.70;91.70;;;;;;5004837;28;20123;-80
2022/11/17 11:18:20;;;;;;;19.98;9.70;;;6.70;91.70;;;;;;5006675;28;20732;-79
2022/11/17 11:21:13;;;;;;;20.15;9.77;;;6.60;91.80;;;;;;4998720;28;20033;-82
2022/11/17 11:23:51;;;;;;;13.88;9.18;;;6.60;92.00;;;;;;5002162;28;20486;-79
2022/11/17 11:26:29;;;;;;;18.05;9.15;;;6.50;92.00;;;;;;5001694;28;20058;-77
2022/11/17 11:29:02;;;;;;;14.20;9.05;;;6.60;91.80;;;;;;5008471;28;20041;-78
2022/11/17 11:31:33;;;;;;;16.83;8.40;;;6.70;91.70;;;;;;5013901;28;20034;-78
2022/11/17 11:34:22;;;;;;;14.48;8.50;;;6.50;91.70;;;;;;5002925;28;20025;-81
2022/11/17 11:36:50;;;;;;;13.57;8.55;;;6.60;91.70;;;;;;5000050;28;20030;-81
2022/11/17 11:39:21;;;;;;;14.10;8.95;;;6.70;91.80;;;;;;5003877;28;20371;-81
2022/11/17 11:42:19;;;;;;;15.15;8.50;;;6.50;91.60;;;;;;5005760;28;20048;-80
2022/11/17 11:45:07;;;;;;;;;;;6.50;91.60;;;;;;5002681;28;20448;-82
2022/11/17 11:48:10;;;;;;;12.75;7.82;;;6.50;91.60;;;;;;5002969;28;20018;-75
2022/11/17 11:50:51;;;;;;;12.60;6.95;;;6.50;91.70;;;;;;4996528;28;20049;-81
2022/11/17 11:53:45;;;;;;;13.20;7.72;;;6.50;91.70;;;;;;5001630;28;20038;-79
2022/11/17 11:56:29;;;;;;;15.73;8.93;;;6.60;91.60;;;;;;4999657;28;20072;-79
2022/11/17 11:59:11;;;;;;;15.18;8.10;;;6.60;91.60;;;;;;4994516;28;20493;-79
2022/11/17 12:02:19;;;;;;;13.82;8.20;;;6.80;91.70;;;;;;4998774;28;20734;-81
2022/11/17 12:04:44;;;;;;;;;;;7.00;91.10;;;;;;4997071;28;20036;-78
2022/11/17 12:07:46;;;;;;;17.90;8.23;;;6.90;90.90;;;;;;5005413;28;19913;-78
2022/11/17 12:10:20;;;;;;;13.73;8.77;;;6.90;91.30;;;;;;4989582;28;20052;-85
2022/11/17 12:12:47;;;;;;;14.57;8.70;;;6.80;91.10;;;;;;5004635;28;20048;-79
2022/11/17 12:15:18;;;;;;;15.98;8.00;;;6.80;91.10;;;;;;5007637;28;20485;-79
2022/11/17 12:17:58;;;;;;;13.70;7.90;;;6.90;90.90;;;;;;4993361;28;20572;-80
2022/11/17 12:20:29;;;;;;;13.13;8.13;;;7.00;90.80;;;;;;4996167;28;20500;-79
2022/11/17 12:23:31;;;;;;;13.45;8.32;;;6.90;90.90;;;;;;4995924;28;20103;-79
2022/11/17 12:25:58;;;;;;;14.13;8.30;;;6.80;90.90;;;;;;5000998;28;20042;-79
2022/11/17 12:28:38;;;;;;;13.93;7.50;;;6.80;91.20;;;;;;5008660;28;20113;-80
2022/11/17 12:31:31;;;;;;;16.17;8.23;;;6.90;90.90;;;;;;5004761;28;20038;-79
2022/11/17 12:34:00;;;;;;;15.15;8.55;;;6.90;90.90;;;;;;5002935;28;20034;-79
2022/11/17 12:36:33;;;;;;;13.27;8.05;;;6.80;90.90;;;;;;5003785;28;20124;-78
2022/11/17 12:39:00;;;;;;;13.60;8.57;;;6.90;91.10;;;;;;5013939;28;20547;-78
2022/11/17 12:41:48;;;;;;;14.63;8.43;;;6.90;91.20;;;;;;5009654;28;20084;-88
2022/11/17 12:44:36;;;;;;;13.70;7.63;;;7.00;91.20;;;;;;5001649;28;20038;-87
2022/11/17 12:47:17;;;;;;;12.23;7.43;;;7.10;90.80;;;;;;5000650;28;20061;-81
2022/11/17 12:50:10;;;;;;;12.85;7.75;;;7.10;90.50;;;;;;5002344;28;20075;-75
2022/11/17 12:52:56;;;;;;;10.68;7.57;;;7.00;91.00;;;;;;4996234;28;20109;-73
2022/11/17 12:55:31;;;;;;;12.70;7.18;;;6.90;91.00;;;;;;5000968;28;20044;-77
2022/11/17 12:58:34;;;;;;;11.88;7.05;;;6.90;90.80;;;;;;5018674;28;20034;-69
2022/11/17 13:01:34;;;;;;;11.40;7.63;;;7.00;90.60;;;;;;4998527;28;20124;-71
2022/11/17 13:04:12;;;;;;;12.13;7.65;;;7.00;90.70;;;;;;4997027;28;20811;-74
2022/11/17 13:06:38;;;;;;;12.63;8.32;;;6.90;90.50;;;;;;4994915;28;20073;-74
2022/11/17 13:09:10;;;;;;;12.00;7.30;;;6.90;90.90;;;;;;4997709;28;20140;-66
2022/11/17 13:11:36;;;;;;;11.98;6.80;;;6.70;90.80;;;;;;4996343;28;20036;-74
2022/11/17 13:14:15;;;;;;;10.52;7.43;;;6.70;91.10;;;;;;5001898;28;20811;-75
2022/11/17 13:16:50;;;;;;;11.45;7.95;;;6.60;91.30;;;;;;4998107;28;20041;-73
2022/11/17 13:19:33;;;;;;;11.73;7.20;;;6.70;91.50;;;;;;4998456;28;20068;-79
2022/11/17 13:22:12;;;;;;;10.25;6.85;;;6.70;91.20;;;;;;5013834;28;20096;-77
2022/11/17 13:24:40;;;;;;;11.40;7.25;;;6.70;91.10;;;;;;4999009;28;20037;-74
2022/11/17 13:27:18;;;;;;;14.93;7.85;;;6.80;91.00;;;;;;5000843;28;20084;-74
2022/11/17 13:29:44;;;;;;;11.13;7.07;;;6.80;91.00;;;;;;4998627;28;20679;-74
2022/11/17 13:32:12;;;;;;;11.68;7.63;;;6.70;91.00;;;;;;5002916;28;20053;-73
2022/11/17 13:34:47;;;;;;;13.15;8.00;;;6.60;91.20;;;;;;5000321;28;20046;-74
2022/11/17 13:37:19;;;;;;;15.00;7.28;;;6.70;91.10;;;;;;5001364;28;20034;-73
2022/11/17 13:40:11;;;;;;;11.43;7.60;;;6.70;90.90;;;;;;5003167;28;20445;-72